»·PEaware :: N15JG KWJF-49X

N15JG :: KWJF-49X

FLIGHT INFORMATION

Flight Status: Arrived
Operator: Privately registered:
United States
More flights under this callsign
Pilot: Anonymous 11047 (11047)
Aircraft: CESSNA 172 SKYHAWK
(C172)
More flights by this aircraft type
Origin: KWJF Gen Fox
United States
Destination: 49X Chemehuevi Valley
United States
More flights between these airports :: More routes between these airports
Route: +
File this flight plan on PilotEdge
Remarks:
Altitude:
(Current/Filed)
0ft
Speed:
(Current/Filed)
0kts
Departed: 09-Nov-18 10:08 AM
Arrived: 09-Nov-18 11:58 AM
Distance/Time
Traveled:
187nm/1:50
Distance/Time
To Go:
Arrived

Flight Plot

Page will automatically refresh every two minutes.


Map Options




Map Legend


Flown Route
Filed Route
Departure Airport
Arrival Airport
Navaid (VOR, NDB)
Fix

Horizontal Profiles

Position Reports

Time Latitude Longitude Heading Altitude Ground
Speed
09-Nov-18 10:08 34.742843 -118.207058 3 2334ft 0kts
09-Nov-18 10:09 34.743082 -118.207044 0 2334ft 6kts
09-Nov-18 10:10 34.743919 -118.207461 302 2335ft 12kts
09-Nov-18 10:11 34.739790 -118.223921 255 2589ft 87kts
09-Nov-18 10:12 34.723425 -118.235157 131 3385ft 90kts
09-Nov-18 10:13 34.723569 -118.206654 68 4129ft 88kts
09-Nov-18 10:14 34.730210 -118.177832 71 4854ft 88kts
09-Nov-18 10:15 34.735199 -118.148436 76 5523ft 89kts
09-Nov-18 10:16 34.738617 -118.118341 76 6153ft 90kts
09-Nov-18 10:17 34.741791 -118.088116 78 6746ft 90kts
09-Nov-18 10:18 34.745196 -118.059021 72 7295ft 85kts
09-Nov-18 10:19 34.746890 -118.028885 81 7568ft 96kts
09-Nov-18 10:20 34.746758 -117.995182 93 7561ft 101kts
09-Nov-18 10:21 34.746604 -117.960927 86 7583ft 103kts
09-Nov-18 10:22 34.745035 -117.924537 89 7487ft 108kts
09-Nov-18 10:23 34.743550 -117.889788 92 7524ft 101kts
09-Nov-18 10:24 34.740566 -117.855780 87 7784ft 106kts
09-Nov-18 10:25 34.740783 -117.817748 84 7695ft 112kts
09-Nov-18 10:26 34.743172 -117.779090 85 7541ft 114kts
09-Nov-18 10:27 34.742230 -117.741327 86 7594ft 105kts
09-Nov-18 10:28 34.740327 -117.705786 93 7599ft 109kts
09-Nov-18 10:29 34.739136 -117.694410 90 7637ft 107kts
09-Nov-18 10:30 34.739096 -117.657609 85 7647ft 109kts
09-Nov-18 10:31 34.739216 -117.619636 85 7577ft 114kts
09-Nov-18 10:32 34.736946 -117.580919 97 7506ft 116kts
09-Nov-18 10:33 34.732851 -117.542883 87 7511ft 113kts
09-Nov-18 10:34 34.732319 -117.504734 90 7515ft 112kts
09-Nov-18 10:35 34.726163 -117.466830 82 7479ft 112kts
09-Nov-18 10:36 34.731207 -117.429173 76 7435ft 113kts
09-Nov-18 10:37 34.733229 -117.391232 98 7411ft 115kts
09-Nov-18 10:38 34.731124 -117.354373 89 7518ft 110kts
09-Nov-18 10:39 34.729431 -117.319494 89 7613ft 107kts
09-Nov-18 10:40 34.729987 -117.282652 81 7627ft 112kts
09-Nov-18 10:41 34.736072 -117.245116 71 7513ft 116kts
09-Nov-18 10:42 34.745515 -117.207907 65 7391ft 115kts
09-Nov-18 10:43 34.757321 -117.173180 63 7378ft 109kts
09-Nov-18 10:44 34.770521 -117.141081 65 7491ft 105kts
09-Nov-18 10:45 34.775085 -117.105434 83 7564ft 107kts
09-Nov-18 10:46 34.779087 -117.068932 77 7590ft 109kts
09-Nov-18 10:47 34.780067 -117.031376 89 7578ft 112kts
09-Nov-18 10:48 34.781431 -116.993437 78 7551ft 112kts
09-Nov-18 10:49 34.782174 -116.955712 84 7593ft 109kts
09-Nov-18 10:50 34.784968 -116.918483 84 7599ft 110kts
09-Nov-18 10:51 34.785487 -116.881201 86 7647ft 109kts
09-Nov-18 10:52 34.784541 -116.843273 87 7667ft 108kts
09-Nov-18 10:53 34.786097 -116.806260 81 7661ft 111kts
09-Nov-18 10:54 34.789581 -116.767336 84 7519ft 117kts
09-Nov-18 10:55 34.789024 -116.728183 89 7488ft 115kts
09-Nov-18 10:56 34.787729 -116.689680 86 7484ft 112kts
09-Nov-18 10:57 34.787018 -116.651937 87 7549ft 109kts
09-Nov-18 10:58 34.787360 -116.614833 84 7616ft 107kts
09-Nov-18 10:59 34.788211 -116.577450 85 7624ft 109kts
09-Nov-18 11:00 34.791334 -116.547099 76 7653ft 109kts
09-Nov-18 11:01 34.795072 -116.504599 79 7744ft 106kts
09-Nov-18 11:02 34.797997 -116.468286 82 7811ft 109kts
09-Nov-18 11:03 34.793044 -116.431366 97 7495ft 113kts
09-Nov-18 11:04 34.787621 -116.394148 94 7524ft 111kts
09-Nov-18 11:05 34.783010 -116.363226 96 7559ft 111kts
09-Nov-18 11:06 34.775671 -116.319762 98 7606ft 111kts
09-Nov-18 11:07 34.768907 -116.289193 98 7642ft 112kts
09-Nov-18 11:08 34.760469 -116.244967 95 7594ft 115kts
09-Nov-18 11:09 34.757929 -116.212776 82 7533ft 116kts
09-Nov-18 11:10 34.754267 -116.173568 96 7480ft 118kts
09-Nov-18 11:11 34.747532 -116.135437 94 7528ft 114kts
09-Nov-18 11:12 34.742832 -116.097464 89 7530ft 114kts
09-Nov-18 11:13 34.737521 -116.060002 92 7604ft 111kts
09-Nov-18 11:14 34.731642 -116.021735 94 7587ft 114kts
09-Nov-18 11:15 34.726964 -115.983604 89 7592ft 113kts
09-Nov-18 11:16 34.723165 -115.945337 92 7588ft 114kts
09-Nov-18 11:17 34.717786 -115.907819 91 7639ft 112kts
09-Nov-18 11:18 34.716296 -115.869379 82 7604ft 111kts
09-Nov-18 11:19 34.710915 -115.830760 95 7530ft 116kts
09-Nov-18 11:20 34.704688 -115.791654 99 7454ft 117kts
09-Nov-18 11:21 34.697022 -115.754792 112 7526ft 116kts
09-Nov-18 11:22 34.687393 -115.718637 91 7578ft 109kts
09-Nov-18 11:23 34.679161 -115.682319 107 7634ft 110kts
09-Nov-18 11:24 34.674344 -115.646081 94 7687ft 109kts
09-Nov-18 11:25 34.670221 -115.609754 88 7730ft 109kts
09-Nov-18 11:26 34.664765 -115.570769 90 7545ft 117kts
09-Nov-18 11:27 34.662569 -115.532123 81 7492ft 116kts
09-Nov-18 11:28 34.663308 -115.491949 82 7491ft 118kts
09-Nov-18 11:29 34.659921 -115.451272 88 7457ft 120kts
09-Nov-18 11:30 34.656074 -115.411133 91 7496ft 117kts
09-Nov-18 11:31 34.650881 -115.371687 91 7506ft 120kts
09-Nov-18 11:32 34.643900 -115.332222 95 7552ft 118kts
09-Nov-18 11:33 34.640855 -115.292491 88 7391ft 127kts
09-Nov-18 11:34 34.636736 -115.252359 92 7369ft 110kts
09-Nov-18 11:35 34.630328 -115.214687 91 7307ft 109kts
09-Nov-18 11:36 34.623324 -115.177602 94 7205ft 114kts
09-Nov-18 11:37 34.616229 -115.141006 91 7231ft 105kts
09-Nov-18 11:38 34.615015 -115.107612 85 7459ft 96kts
09-Nov-18 11:39 34.609880 -115.073893 92 7578ft 103kts
09-Nov-18 11:40 34.602525 -115.038716 84 7628ft 104kts
09-Nov-18 11:41 34.600725 -115.003239 87 7615ft 104kts
09-Nov-18 11:42 34.597056 -114.969148 80 6953ft 96kts
09-Nov-18 11:43 34.596392 -114.937516 85 6457ft 96kts
09-Nov-18 11:44 34.593483 -114.904621 75 5899ft 96kts
09-Nov-18 11:45 34.586633 -114.872260 89 5396ft 97kts
09-Nov-18 11:46 34.579577 -114.840392 76 5006ft 88kts
09-Nov-18 11:47 34.576005 -114.808870 93 4915ft 97kts
09-Nov-18 11:48 34.571454 -114.774914 87 5067ft 106kts
09-Nov-18 11:49 34.568886 -114.740224 87 5268ft 103kts
09-Nov-18 11:50 34.564293 -114.704660 83 5327ft 109kts
09-Nov-18 11:51 34.559617 -114.666171 87 5272ft 117kts
09-Nov-18 11:52 34.556199 -114.627873 81 5328ft 114kts
09-Nov-18 11:53 34.554256 -114.588517 93 5180ft 121kts
09-Nov-18 11:54 34.543832 -114.548400 96 4754ft 122kts
09-Nov-18 11:55 34.537669 -114.508359 75 4123ft 116kts
09-Nov-18 11:56 34.550653 -114.475580 28 3431ft 103kts
09-Nov-18 11:57 34.574023 -114.461019 81 2804ft 115kts
09-Nov-18 11:58 34.545328 -114.441550 194 1838ft 118kts
09-Nov-18 11:59 34.516764 -114.447683 193 1549ft 98kts
09-Nov-18 12:00 34.507457 -114.432940 19 1165ft 73kts
09-Nov-18 12:01 34.522749 -114.432023 351 643ft 39kts
09-Nov-18 12:02 34.528884 -114.431392 88 627ft 14kts
09-Nov-18 12:03 34.529470 -114.430364 2 627ft 0kts

Navigation Log

Ident Type
1. KWJF Airport
2. 49X Airport